sensor_id;sensor_type;location;lat;lon;timestamp;temperature;humidity
63283;DHT22;49407;51.388;0.048;2022-07-29T00:00:12;16.50;78.00
63283;DHT22;49407;51.388;0.048;2022-07-29T00:02:39;16.40;78.30
63283;DHT22;49407;51.388;0.048;2022-07-29T00:05:08;16.40;78.50
63283;DHT22;49407;51.388;0.048;2022-07-29T00:07:36;16.30;78.70
63283;DHT22;49407;51.388;0.048;2022-07-29T00:10:04;16.30;79.40
63283;DHT22;49407;51.388;0.048;2022-07-29T00:12:31;16.30;79.10
63283;DHT22;49407;51.388;0.048;2022-07-29T00:14:58;16.20;79.20
63283;DHT22;49407;51.388;0.048;2022-07-29T00:17:25;16.20;79.50
63283;DHT22;49407;51.388;0.048;2022-07-29T00:19:57;16.20;79.90
63283;DHT22;49407;51.388;0.048;2022-07-29T00:22:24;16.10;80.20
63283;DHT22;49407;51.388;0.048;2022-07-29T00:24:51;16.10;80.30
63283;DHT22;49407;51.388;0.048;2022-07-29T00:27:18;16.10;80.50
63283;DHT22;49407;51.388;0.048;2022-07-29T00:32:50;16.10;81.30
63283;DHT22;49407;51.388;0.048;2022-07-29T00:35:17;16.10;81.10
63283;DHT22;49407;51.388;0.048;2022-07-29T00:38:02;16.10;81.40
63283;DHT22;49407;51.388;0.048;2022-07-29T00:40:32;16.20;81.40
63283;DHT22;49407;51.388;0.048;2022-07-29T00:42:59;16.20;81.80
63283;DHT22;49407;51.388;0.048;2022-07-29T00:45:26;16.30;81.80
63283;DHT22;49407;51.388;0.048;2022-07-29T00:47:53;16.30;81.90
63283;DHT22;49407;51.388;0.048;2022-07-29T00:50:24;16.30;82.00
63283;DHT22;49407;51.388;0.048;2022-07-29T00:52:52;16.30;82.10
63283;DHT22;49407;51.388;0.048;2022-07-29T00:55:19;16.40;82.20
63283;DHT22;49407;51.388;0.048;2022-07-29T00:57:47;16.50;82.30
63283;DHT22;49407;51.388;0.048;2022-07-29T01:00:19;16.50;82.40
63283;DHT22;49407;51.388;0.048;2022-07-29T01:02:47;16.50;82.70
63283;DHT22;49407;51.388;0.048;2022-07-29T01:05:19;16.50;82.60
63283;DHT22;49407;51.388;0.048;2022-07-29T01:07:49;16.50;82.60
63283;DHT22;49407;51.388;0.048;2022-07-29T01:10:18;16.50;82.70
63283;DHT22;49407;51.388;0.048;2022-07-29T01:12:48;16.50;82.80
63283;DHT22;49407;51.388;0.048;2022-07-29T01:15:16;16.50;82.80
63283;DHT22;49407;51.388;0.048;2022-07-29T01:29:07;16.70;82.90
63283;DHT22;49407;51.388;0.048;2022-07-29T01:34:37;16.70;83.40
63283;DHT22;49407;51.388;0.048;2022-07-29T01:37:20;16.70;82.90
63283;DHT22;49407;51.388;0.048;2022-07-29T01:40:20;16.70;82.70
63283;DHT22;49407;51.388;0.048;2022-07-29T01:42:56;16.70;83.00
63283;DHT22;49407;51.388;0.048;2022-07-29T01:45:27;16.70;83.00
63283;DHT22;49407;51.388;0.048;2022-07-29T01:50:48;16.70;83.00
63283;DHT22;49407;51.388;0.048;2022-07-29T01:53:36;16.70;83.20
63283;DHT22;49407;51.388;0.048;2022-07-29T01:56:06;16.70;83.20
63283;DHT22;49407;51.388;0.048;2022-07-29T01:58:36;16.70;83.10
63283;DHT22;49407;51.388;0.048;2022-07-29T02:01:07;16.60;83.00
63283;DHT22;49407;51.388;0.048;2022-07-29T02:03:36;16.60;83.10
63283;DHT22;49407;51.388;0.048;2022-07-29T02:06:06;16.60;83.20
63283;DHT22;49407;51.388;0.048;2022-07-29T02:08:35;16.60;83.20
63283;DHT22;49407;51.388;0.048;2022-07-29T02:11:04;16.50;83.30
63283;DHT22;49407;51.388;0.048;2022-07-29T02:13:33;16.50;83.40
63283;DHT22;49407;51.388;0.048;2022-07-29T02:16:02;16.50;83.60
63283;DHT22;49407;51.388;0.048;2022-07-29T02:18:31;16.40;83.60
63283;DHT22;49407;51.388;0.048;2022-07-29T02:21:01;16.30;83.80
63283;DHT22;49407;51.388;0.048;2022-07-29T02:23:28;16.30;84.00
63283;DHT22;49407;51.388;0.048;2022-07-29T02:26:17;16.20;84.00
63283;DHT22;49407;51.388;0.048;2022-07-29T02:28:47;16.20;84.10
63283;DHT22;49407;51.388;0.048;2022-07-29T02:31:18;16.10;84.10
63283;DHT22;49407;51.388;0.048;2022-07-29T02:33:47;16.00;84.30
63283;DHT22;49407;51.388;0.048;2022-07-29T02:36:16;15.90;84.70
63283;DHT22;49407;51.388;0.048;2022-07-29T02:38:43;15.90;85.00
63283;DHT22;49407;51.388;0.048;2022-07-29T02:44:26;15.70;85.70
63283;DHT22;49407;51.388;0.048;2022-07-29T02:47:19;15.70;85.50
63283;DHT22;49407;51.388;0.048;2022-07-29T02:50:09;15.50;85.70
63283;DHT22;49407;51.388;0.048;2022-07-29T02:52:42;15.50;85.70
63283;DHT22;49407;51.388;0.048;2022-07-29T02:55:31;15.40;85.60
63283;DHT22;49407;51.388;0.048;2022-07-29T03:00:46;15.20;86.10
63283;DHT22;49407;51.388;0.048;2022-07-29T03:03:16;15.20;86.00
63283;DHT22;49407;51.388;0.048;2022-07-29T03:05:44;15.10;86.20
63283;DHT22;49407;51.388;0.048;2022-07-29T03:08:12;15.10;86.30
63283;DHT22;49407;51.388;0.048;2022-07-29T03:10:44;15.00;86.30
63283;DHT22;49407;51.388;0.048;2022-07-29T03:13:12;14.90;86.40
63283;DHT22;49407;51.388;0.048;2022-07-29T03:15:40;14.90;86.40
63283;DHT22;49407;51.388;0.048;2022-07-29T03:18:09;14.80;86.50
63283;DHT22;49407;51.388;0.048;2022-07-29T03:21:04;14.80;86.60
63283;DHT22;49407;51.388;0.048;2022-07-29T03:23:31;14.70;87.00
63283;DHT22;49407;51.388;0.048;2022-07-29T03:26:02;14.60;87.00
63283;DHT22;49407;51.388;0.048;2022-07-29T03:28:29;14.60;87.20
63283;DHT22;49407;51.388;0.048;2022-07-29T03:30:58;14.60;87.50
63283;DHT22;49407;51.388;0.048;2022-07-29T03:33:25;14.50;87.50
63283;DHT22;49407;51.388;0.048;2022-07-29T03:35:52;14.50;87.60
63283;DHT22;49407;51.388;0.048;2022-07-29T03:38:20;14.50;87.90
63283;DHT22;49407;51.388;0.048;2022-07-29T03:41:00;14.40;88.00
63283;DHT22;49407;51.388;0.048;2022-07-29T03:43:31;14.30;88.00
63283;DHT22;49407;51.388;0.048;2022-07-29T03:45:59;14.40;88.00
63283;DHT22;49407;51.388;0.048;2022-07-29T03:48:28;14.30;88.00
63283;DHT22;49407;51.388;0.048;2022-07-29T03:51:18;14.30;88.00
63283;DHT22;49407;51.388;0.048;2022-07-29T03:54:01;14.20;88.20
63283;DHT22;49407;51.388;0.048;2022-07-29T03:56:39;14.20;88.10
63283;DHT22;49407;51.388;0.048;2022-07-29T03:59:07;14.10;88.10
63283;DHT22;49407;51.388;0.048;2022-07-29T04:01:39;14.10;88.40
63283;DHT22;49407;51.388;0.048;2022-07-29T04:04:07;14.10;89.20
63283;DHT22;49407;51.388;0.048;2022-07-29T04:06:41;14.10;89.20
63283;DHT22;49407;51.388;0.048;2022-07-29T04:09:09;14.10;89.50
63283;DHT22;49407;51.388;0.048;2022-07-29T04:11:41;14.00;89.40
63283;DHT22;49407;51.388;0.048;2022-07-29T04:14:28;14.00;89.60
63283;DHT22;49407;51.388;0.048;2022-07-29T04:16:55;14.00;89.40
63283;DHT22;49407;51.388;0.048;2022-07-29T04:22:29;13.90;89.70
63283;DHT22;49407;51.388;0.048;2022-07-29T04:24:56;13.90;89.40
63283;DHT22;49407;51.388;0.048;2022-07-29T04:27:29;13.90;89.60
63283;DHT22;49407;51.388;0.048;2022-07-29T04:33:03;13.80;90.00
63283;DHT22;49407;51.388;0.048;2022-07-29T04:35:33;13.80;89.80
63283;DHT22;49407;51.388;0.048;2022-07-29T04:38:05;13.90;90.00
63283;DHT22;49407;51.388;0.048;2022-07-29T04:40:33;13.90;90.10
63283;DHT22;49407;51.388;0.048;2022-07-29T04:43:04;13.90;90.10
63283;DHT22;49407;51.388;0.048;2022-07-29T04:45:31;14.00;90.10
63283;DHT22;49407;51.388;0.048;2022-07-29T04:47:58;14.00;90.10
63283;DHT22;49407;51.388;0.048;2022-07-29T04:53:29;14.00;90.20
63283;DHT22;49407;51.388;0.048;2022-07-29T04:55:56;14.20;90.00
63283;DHT22;49407;51.388;0.048;2022-07-29T04:58:23;14.20;89.70
63283;DHT22;49407;51.388;0.048;2022-07-29T05:00:51;14.20;89.80
63283;DHT22;49407;51.388;0.048;2022-07-29T05:03:18;14.20;89.90
63283;DHT22;49407;51.388;0.048;2022-07-29T05:05:45;14.20;90.00
63283;DHT22;49407;51.388;0.048;2022-07-29T05:08:12;14.30;90.00
63283;DHT22;49407;51.388;0.048;2022-07-29T05:11:00;14.30;90.00
63283;DHT22;49407;51.388;0.048;2022-07-29T05:13:38;14.30;90.10
63283;DHT22;49407;51.388;0.048;2022-07-29T05:16:11;14.40;90.00
63283;DHT22;49407;51.388;0.048;2022-07-29T05:18:40;14.50;90.00
63283;DHT22;49407;51.388;0.048;2022-07-29T05:24:11;14.70;90.30
63283;DHT22;49407;51.388;0.048;2022-07-29T05:26:39;14.80;90.20
63283;DHT22;49407;51.388;0.048;2022-07-29T05:29:06;14.90;90.20
63283;DHT22;49407;51.388;0.048;2022-07-29T05:31:53;15.10;90.20
63283;DHT22;49407;51.388;0.048;2022-07-29T05:34:20;15.30;90.10
63283;DHT22;49407;51.388;0.048;2022-07-29T05:36:47;15.60;90.20
63283;DHT22;49407;51.388;0.048;2022-07-29T05:39:14;15.70;90.10
63283;DHT22;49407;51.388;0.048;2022-07-29T05:41:44;15.90;89.50
63283;DHT22;49407;51.388;0.048;2022-07-29T05:44:17;16.20;89.20
63283;DHT22;49407;51.388;0.048;2022-07-29T05:46:45;16.40;88.80
63283;DHT22;49407;51.388;0.048;2022-07-29T05:49:14;16.60;88.50
63283;DHT22;49407;51.388;0.048;2022-07-29T05:51:53;16.80;88.70
63283;DHT22;49407;51.388;0.048;2022-07-29T05:54:20;17.10;87.80
63283;DHT22;49407;51.388;0.048;2022-07-29T05:56:47;17.40;87.40
63283;DHT22;49407;51.388;0.048;2022-07-29T05:59:14;17.70;87.00
63283;DHT22;49407;51.388;0.048;2022-07-29T06:01:44;18.00;86.50
63283;DHT22;49407;51.388;0.048;2022-07-29T06:04:11;18.20;85.90
63283;DHT22;49407;51.388;0.048;2022-07-29T06:06:38;18.50;85.40
63283;DHT22;49407;51.388;0.048;2022-07-29T06:09:05;18.80;84.90
63283;DHT22;49407;51.388;0.048;2022-07-29T06:11:38;19.00;84.10
63283;DHT22;49407;51.388;0.048;2022-07-29T06:14:05;19.30;83.60
63283;DHT22;49407;51.388;0.048;2022-07-29T06:16:32;19.50;83.20
63283;DHT22;49407;51.388;0.048;2022-07-29T06:18:59;19.70;82.70
63283;DHT22;49407;51.388;0.048;2022-07-29T06:21:55;19.90;82.20
63283;DHT22;49407;51.388;0.048;2022-07-29T06:24:22;20.00;81.70
63283;DHT22;49407;51.388;0.048;2022-07-29T06:26:49;20.00;81.20
63283;DHT22;49407;51.388;0.048;2022-07-29T06:29:16;20.10;81.40
63283;DHT22;49407;51.388;0.048;2022-07-29T06:31:43;20.20;81.40
63283;DHT22;49407;51.388;0.048;2022-07-29T06:34:10;20.30;81.10
63283;DHT22;49407;51.388;0.048;2022-07-29T06:36:37;20.40;80.80
63283;DHT22;49407;51.388;0.048;2022-07-29T06:39:07;20.60;80.80
63283;DHT22;49407;51.388;0.048;2022-07-29T06:41:38;20.80;80.50
63283;DHT22;49407;51.388;0.048;2022-07-29T06:44:09;21.00;80.20
63283;DHT22;49407;51.388;0.048;2022-07-29T06:46:36;21.30;79.70
63283;DHT22;49407;51.388;0.048;2022-07-29T06:49:03;21.50;79.20
63283;DHT22;49407;51.388;0.048;2022-07-29T06:51:32;21.70;78.70
63283;DHT22;49407;51.388;0.048;2022-07-29T06:53:59;21.90;78.30
63283;DHT22;49407;51.388;0.048;2022-07-29T06:56:34;22.10;77.80
63283;DHT22;49407;51.388;0.048;2022-07-29T06:59:07;22.40;77.30
63283;DHT22;49407;51.388;0.048;2022-07-29T07:01:37;22.60;76.70
63283;DHT22;49407;51.388;0.048;2022-07-29T07:04:05;22.80;76.00
63283;DHT22;49407;51.388;0.048;2022-07-29T07:06:32;22.90;75.40
63283;DHT22;49407;51.388;0.048;2022-07-29T07:08:59;23.00;75.00
63283;DHT22;49407;51.388;0.048;2022-07-29T07:11:26;23.00;74.70
63283;DHT22;49407;51.388;0.048;2022-07-29T07:13:53;23.00;74.60
63283;DHT22;49407;51.388;0.048;2022-07-29T07:16:26;23.20;74.30
63283;DHT22;49407;51.388;0.048;2022-07-29T07:18:53;23.40;73.80
63283;DHT22;49407;51.388;0.048;2022-07-29T07:21:20;23.60;73.10
63283;DHT22;49407;51.388;0.048;2022-07-29T07:23:47;23.70;72.50
63283;DHT22;49407;51.388;0.048;2022-07-29T07:26:14;23.60;72.40
63283;DHT22;49407;51.388;0.048;2022-07-29T07:28:41;23.40;72.40
63283;DHT22;49407;51.388;0.048;2022-07-29T07:31:10;23.20;72.60
63283;DHT22;49407;51.388;0.048;2022-07-29T07:33:37;23.00;72.80
63283;DHT22;49407;51.388;0.048;2022-07-29T07:36:04;22.80;73.10
63283;DHT22;49407;51.388;0.048;2022-07-29T07:38:33;22.60;73.40
63283;DHT22;49407;51.388;0.048;2022-07-29T07:41:00;22.40;73.70
63283;DHT22;49407;51.388;0.048;2022-07-29T07:43:27;22.20;74.10
63283;DHT22;49407;51.388;0.048;2022-07-29T07:45:54;22.00;74.60
63283;DHT22;49407;51.388;0.048;2022-07-29T07:48:21;22.00;74.90
63283;DHT22;49407;51.388;0.048;2022-07-29T07:50:50;22.10;75.00
63283;DHT22;49407;51.388;0.048;2022-07-29T07:53:18;22.20;74.70
63283;DHT22;49407;51.388;0.048;2022-07-29T07:55:45;22.40;74.50
63283;DHT22;49407;51.388;0.048;2022-07-29T07:58:32;22.60;74.10
63283;DHT22;49407;51.388;0.048;2022-07-29T08:04:22;22.80;73.40
63283;DHT22;49407;51.388;0.048;2022-07-29T08:06:55;23.10;73.10
63283;DHT22;49407;51.388;0.048;2022-07-29T08:09:24;23.30;72.40
63283;DHT22;49407;51.388;0.048;2022-07-29T08:11:57;23.40;71.90
63283;DHT22;49407;51.388;0.048;2022-07-29T08:14:25;23.60;71.40
63283;DHT22;49407;51.388;0.048;2022-07-29T08:16:52;23.70;70.80
63283;DHT22;49407;51.388;0.048;2022-07-29T08:19:23;23.90;69.70
63283;DHT22;49407;51.388;0.048;2022-07-29T08:21:50;24.10;69.00
63283;DHT22;49407;51.388;0.048;2022-07-29T08:24:20;24.20;68.30
63283;DHT22;49407;51.388;0.048;2022-07-29T08:27:06;24.30;67.50
63283;DHT22;49407;51.388;0.048;2022-07-29T08:29:54;24.40;66.90
63283;DHT22;49407;51.388;0.048;2022-07-29T08:32:22;24.50;66.20
63283;DHT22;49407;51.388;0.048;2022-07-29T08:35:09;24.60;66.00
63283;DHT22;49407;51.388;0.048;2022-07-29T08:37:36;24.80;65.70
63283;DHT22;49407;51.388;0.048;2022-07-29T08:40:05;25.00;64.70
63283;DHT22;49407;51.388;0.048;2022-07-29T08:42:32;25.00;64.10
63283;DHT22;49407;51.388;0.048;2022-07-29T08:44:59;25.10;63.60
63283;DHT22;49407;51.388;0.048;2022-07-29T08:47:27;25.10;63.20
63283;DHT22;49407;51.388;0.048;2022-07-29T08:49:55;25.20;63.00
63283;DHT22;49407;51.388;0.048;2022-07-29T08:52:25;25.20;62.60
63283;DHT22;49407;51.388;0.048;2022-07-29T08:54:52;25.20;62.50
63283;DHT22;49407;51.388;0.048;2022-07-29T08:57:22;25.30;62.50
63283;DHT22;49407;51.388;0.048;2022-07-29T08:59:54;25.40;61.90
63283;DHT22;49407;51.388;0.048;2022-07-29T09:02:22;25.50;61.40
63283;DHT22;49407;51.388;0.048;2022-07-29T09:04:49;25.60;60.90
63283;DHT22;49407;51.388;0.048;2022-07-29T09:07:19;25.60;60.00
63283;DHT22;49407;51.388;0.048;2022-07-29T09:09:46;25.60;59.50
63283;DHT22;49407;51.388;0.048;2022-07-29T09:12:14;25.60;58.50
63283;DHT22;49407;51.388;0.048;2022-07-29T09:14:55;25.70;58.10
63283;DHT22;49407;51.388;0.048;2022-07-29T09:20:16;25.80;57.10
63283;DHT22;49407;51.388;0.048;2022-07-29T09:22:45;25.90;56.90
63283;DHT22;49407;51.388;0.048;2022-07-29T09:25:35;26.00;56.40
63283;DHT22;49407;51.388;0.048;2022-07-29T09:28:15;26.10;56.00
63283;DHT22;49407;51.388;0.048;2022-07-29T09:30:54;26.10;55.80
63283;DHT22;49407;51.388;0.048;2022-07-29T09:33:22;26.20;55.90
63283;DHT22;49407;51.388;0.048;2022-07-29T09:36:19;26.10;55.70
63283;DHT22;49407;51.388;0.048;2022-07-29T09:38:57;26.00;55.60
63283;DHT22;49407;51.388;0.048;2022-07-29T09:41:51;26.10;55.50
63283;DHT22;49407;51.388;0.048;2022-07-29T09:44:23;26.20;54.90
63283;DHT22;49407;51.388;0.048;2022-07-29T09:47:02;26.40;54.30
63283;DHT22;49407;51.388;0.048;2022-07-29T09:49:56;26.40;53.50
63283;DHT22;49407;51.388;0.048;2022-07-29T09:52:28;26.50;53.10
63283;DHT22;49407;51.388;0.048;2022-07-29T09:55:06;26.60;52.90
63283;DHT22;49407;51.388;0.048;2022-07-29T09:57:33;26.70;52.70
63283;DHT22;49407;51.388;0.048;2022-07-29T10:02:39;27.00;52.60
63283;DHT22;49407;51.388;0.048;2022-07-29T10:05:21;27.30;52.60
63283;DHT22;49407;51.388;0.048;2022-07-29T10:07:50;27.70;52.00
63283;DHT22;49407;51.388;0.048;2022-07-29T10:13:27;28.30;50.90
63283;DHT22;49407;51.388;0.048;2022-07-29T10:15:54;28.70;50.60
63283;DHT22;49407;51.388;0.048;2022-07-29T10:18:22;28.90;50.10
63283;DHT22;49407;51.388;0.048;2022-07-29T10:20:50;29.10;49.60
63283;DHT22;49407;51.388;0.048;2022-07-29T10:23:17;29.30;49.30
63283;DHT22;49407;51.388;0.048;2022-07-29T10:25:45;29.50;49.00
63283;DHT22;49407;51.388;0.048;2022-07-29T10:28:13;29.80;48.70
63283;DHT22;49407;51.388;0.048;2022-07-29T10:42:19;30.70;46.40
63283;DHT22;49407;51.388;0.048;2022-07-29T10:44:59;30.90;45.70
63283;DHT22;49407;51.388;0.048;2022-07-29T10:47:27;30.90;44.60
63283;DHT22;49407;51.388;0.048;2022-07-29T10:50:05;30.90;44.80
63283;DHT22;49407;51.388;0.048;2022-07-29T10:55:37;31.40;44.40
63283;DHT22;49407;51.388;0.048;2022-07-29T10:58:19;31.60;43.90
63283;DHT22;49407;51.388;0.048;2022-07-29T11:00:52;31.60;43.30
63283;DHT22;49407;51.388;0.048;2022-07-29T11:03:47;31.60;43.00
63283;DHT22;49407;51.388;0.048;2022-07-29T11:06:19;31.70;42.80
63283;DHT22;49407;51.388;0.048;2022-07-29T11:09:15;31.70;43.00
63283;DHT22;49407;51.388;0.048;2022-07-29T11:11:45;31.90;42.50
63283;DHT22;49407;51.388;0.048;2022-07-29T11:14:18;32.00;42.60
63283;DHT22;49407;51.388;0.048;2022-07-29T11:17:06;32.20;42.00
63283;DHT22;49407;51.388;0.048;2022-07-29T11:19:36;32.40;41.50
63283;DHT22;49407;51.388;0.048;2022-07-29T11:22:34;32.50;40.80
63283;DHT22;49407;51.388;0.048;2022-07-29T11:25:15;32.90;39.90
63283;DHT22;49407;51.388;0.048;2022-07-29T11:27:44;33.20;39.60
63283;DHT22;49407;51.388;0.048;2022-07-29T11:30:12;33.20;39.00
63283;DHT22;49407;51.388;0.048;2022-07-29T11:32:42;33.30;39.10
63283;DHT22;49407;51.388;0.048;2022-07-29T11:35:17;33.50;38.50
63283;DHT22;49407;51.388;0.048;2022-07-29T11:43:58;34.30;37.50
63283;DHT22;49407;51.388;0.048;2022-07-29T11:46:46;34.60;37.00
63283;DHT22;49407;51.388;0.048;2022-07-29T11:49:22;34.90;36.40
63283;DHT22;49407;51.388;0.048;2022-07-29T11:51:58;35.20;36.30
63283;DHT22;49407;51.388;0.048;2022-07-29T11:54:33;35.40;35.10
63283;DHT22;49407;51.388;0.048;2022-07-29T11:57:20;35.70;35.30
63283;DHT22;49407;51.388;0.048;2022-07-29T11:59:48;36.10;35.20
63283;DHT22;49407;51.388;0.048;2022-07-29T12:02:16;36.40;34.90
63283;DHT22;49407;51.388;0.048;2022-07-29T12:05:03;36.70;34.40
63283;DHT22;49407;51.388;0.048;2022-07-29T12:07:37;36.90;34.10
63283;DHT22;49407;51.388;0.048;2022-07-29T12:10:08;36.80;33.80
63283;DHT22;49407;51.388;0.048;2022-07-29T12:12:51;36.40;33.60
63283;DHT22;49407;51.388;0.048;2022-07-29T12:15:19;35.90;33.70
63283;DHT22;49407;51.388;0.048;2022-07-29T12:17:48;35.40;34.00
63283;DHT22;49407;51.388;0.048;2022-07-29T12:20:29;35.00;34.10
63283;DHT22;49407;51.388;0.048;2022-07-29T12:22:56;34.60;34.10
63283;DHT22;49407;51.388;0.048;2022-07-29T12:25:23;34.70;34.00
63283;DHT22;49407;51.388;0.048;2022-07-29T12:28:02;35.20;34.10
63283;DHT22;49407;51.388;0.048;2022-07-29T12:30:47;35.70;33.60
63283;DHT22;49407;51.388;0.048;2022-07-29T12:33:26;36.20;33.00
63283;DHT22;49407;51.388;0.048;2022-07-29T12:35:57;36.80;33.00
63283;DHT22;49407;51.388;0.048;2022-07-29T12:38:33;37.20;32.50
63283;DHT22;49407;51.388;0.048;2022-07-29T12:41:02;37.70;32.80
63283;DHT22;49407;51.388;0.048;2022-07-29T12:43:30;38.00;31.90
63283;DHT22;49407;51.388;0.048;2022-07-29T12:45:58;38.10;31.70
63283;DHT22;49407;51.388;0.048;2022-07-29T12:48:40;38.00;31.30
63283;DHT22;49407;51.388;0.048;2022-07-29T12:51:09;37.50;31.30
63283;DHT22;49407;51.388;0.048;2022-07-29T12:53:37;37.10;31.30
63283;DHT22;49407;51.388;0.048;2022-07-29T12:56:05;37.20;31.30
63283;DHT22;49407;51.388;0.048;2022-07-29T12:58:52;37.60;31.20
63283;DHT22;49407;51.388;0.048;2022-07-29T13:01:20;38.10;30.90
63283;DHT22;49407;51.388;0.048;2022-07-29T13:03:56;38.50;30.40
63283;DHT22;49407;51.388;0.048;2022-07-29T13:06:40;38.60;30.30
63283;DHT22;49407;51.388;0.048;2022-07-29T13:09:16;38.80;30.10
63283;DHT22;49407;51.388;0.048;2022-07-29T13:11:46;38.50;30.00
63283;DHT22;49407;51.388;0.048;2022-07-29T13:14:39;37.70;30.10
63283;DHT22;49407;51.388;0.048;2022-07-29T13:17:14;36.90;30.60
63283;DHT22;49407;51.388;0.048;2022-07-29T13:19:52;36.10;31.80
63283;DHT22;49407;51.388;0.048;2022-07-29T13:22:22;35.50;31.40
63283;DHT22;49407;51.388;0.048;2022-07-29T13:24:58;35.00;31.70
63283;DHT22;49407;51.388;0.048;2022-07-29T13:27:31;35.20;31.80
63283;DHT22;49407;51.388;0.048;2022-07-29T13:30:08;36.00;31.30
63283;DHT22;49407;51.388;0.048;2022-07-29T13:32:35;36.90;30.80
63283;DHT22;49407;51.388;0.048;2022-07-29T13:35:07;37.80;30.30
63283;DHT22;49407;51.388;0.048;2022-07-29T13:37:35;38.70;29.90
63283;DHT22;49407;51.388;0.048;2022-07-29T13:40:06;39.40;29.60
63283;DHT22;49407;51.388;0.048;2022-07-29T13:42:33;39.50;29.30
63283;DHT22;49407;51.388;0.048;2022-07-29T13:45:00;39.20;29.10
63283;DHT22;49407;51.388;0.048;2022-07-29T13:47:28;38.80;29.30
63283;DHT22;49407;51.388;0.048;2022-07-29T13:50:03;38.20;29.40
63283;DHT22;49407;51.388;0.048;2022-07-29T13:52:32;37.50;29.70
63283;DHT22;49407;51.388;0.048;2022-07-29T13:55:00;36.80;30.00
63283;DHT22;49407;51.388;0.048;2022-07-29T13:57:27;35.90;30.30
63283;DHT22;49407;51.388;0.048;2022-07-29T13:59:55;35.00;30.80
63283;DHT22;49407;51.388;0.048;2022-07-29T14:02:22;34.40;31.40
63283;DHT22;49407;51.388;0.048;2022-07-29T14:04:53;33.90;31.80
63283;DHT22;49407;51.388;0.048;2022-07-29T14:07:21;33.60;32.20
63283;DHT22;49407;51.388;0.048;2022-07-29T14:09:48;33.60;32.40
63283;DHT22;49407;51.388;0.048;2022-07-29T14:12:15;34.30;32.20
63283;DHT22;49407;51.388;0.048;2022-07-29T14:14:42;35.40;31.50
63283;DHT22;49407;51.388;0.048;2022-07-29T14:17:09;36.40;30.70
63283;DHT22;49407;51.388;0.048;2022-07-29T14:22:26;37.00;30.30
63283;DHT22;49407;51.388;0.048;2022-07-29T14:24:53;37.40;30.00
63283;DHT22;49407;51.388;0.048;2022-07-29T14:27:21;38.30;29.70
63283;DHT22;49407;51.388;0.048;2022-07-29T14:30:06;39.10;29.10
63283;DHT22;49407;51.388;0.048;2022-07-29T14:32:33;39.90;28.70
63283;DHT22;49407;51.388;0.048;2022-07-29T14:35:01;40.60;28.60
63283;DHT22;49407;51.388;0.048;2022-07-29T14:37:27;41.20;28.30
63283;DHT22;49407;51.388;0.048;2022-07-29T14:40:09;41.90;28.10
63283;DHT22;49407;51.388;0.048;2022-07-29T14:42:37;42.50;27.70
63283;DHT22;49407;51.388;0.048;2022-07-29T14:45:06;42.90;27.50
63283;DHT22;49407;51.388;0.048;2022-07-29T14:47:33;43.10;27.30
63283;DHT22;49407;51.388;0.048;2022-07-29T14:50:04;43.00;27.10
63283;DHT22;49407;51.388;0.048;2022-07-29T14:52:31;42.60;27.10
63283;DHT22;49407;51.388;0.048;2022-07-29T14:54:58;42.40;27.20
63283;DHT22;49407;51.388;0.048;2022-07-29T14:57:26;42.50;27.10
63283;DHT22;49407;51.388;0.048;2022-07-29T14:59:54;42.30;27.00
63283;DHT22;49407;51.388;0.048;2022-07-29T15:02:21;41.70;27.00
63283;DHT22;49407;51.388;0.048;2022-07-29T15:05:01;40.40;27.30
63283;DHT22;49407;51.388;0.048;2022-07-29T15:07:28;38.90;27.80
63283;DHT22;49407;51.388;0.048;2022-07-29T15:09:57;38.00;28.30
63283;DHT22;49407;51.388;0.048;2022-07-29T15:12:25;37.10;28.60
63283;DHT22;49407;51.388;0.048;2022-07-29T15:14:52;36.40;29.30
63283;DHT22;49407;51.388;0.048;2022-07-29T15:17:19;36.20;29.10
63283;DHT22;49407;51.388;0.048;2022-07-29T15:19:48;36.10;29.80
63283;DHT22;49407;51.388;0.048;2022-07-29T15:22:15;35.70;29.50
63283;DHT22;49407;51.388;0.048;2022-07-29T15:24:42;35.40;29.80
63283;DHT22;49407;51.388;0.048;2022-07-29T15:27:09;35.10;30.00
63283;DHT22;49407;51.388;0.048;2022-07-29T15:29:42;34.90;30.00
63283;DHT22;49407;51.388;0.048;2022-07-29T15:32:09;35.50;30.00
63283;DHT22;49407;51.388;0.048;2022-07-29T15:34:37;36.50;29.50
63283;DHT22;49407;51.388;0.048;2022-07-29T15:37:05;37.70;29.10
63283;DHT22;49407;51.388;0.048;2022-07-29T15:39:32;38.80;28.60
63283;DHT22;49407;51.388;0.048;2022-07-29T15:41:59;39.70;28.20
63283;DHT22;49407;51.388;0.048;2022-07-29T15:44:27;40.20;27.80
63283;DHT22;49407;51.388;0.048;2022-07-29T15:46:54;40.40;27.70
63283;DHT22;49407;51.388;0.048;2022-07-29T15:52:20;41.00;27.20
63283;DHT22;49407;51.388;0.048;2022-07-29T15:54:54;40.50;27.50
63283;DHT22;49407;51.388;0.048;2022-07-29T15:57:21;39.70;28.10
63283;DHT22;49407;51.388;0.048;2022-07-29T15:59:49;38.90;28.30
63283;DHT22;49407;51.388;0.048;2022-07-29T16:02:16;38.10;28.60
63283;DHT22;49407;51.388;0.048;2022-07-29T16:04:43;37.40;28.80
63283;DHT22;49407;51.388;0.048;2022-07-29T16:07:10;36.70;29.20
63283;DHT22;49407;51.388;0.048;2022-07-29T16:09:37;36.10;29.90
63283;DHT22;49407;51.388;0.048;2022-07-29T16:12:04;35.60;29.60
63283;DHT22;49407;51.388;0.048;2022-07-29T16:14:42;35.20;29.90
63283;DHT22;49407;51.388;0.048;2022-07-29T16:17:09;34.80;30.00
63283;DHT22;49407;51.388;0.048;2022-07-29T16:22:32;34.00;30.60
63283;DHT22;49407;51.388;0.048;2022-07-29T16:24:59;33.70;30.90
63283;DHT22;49407;51.388;0.048;2022-07-29T16:27:26;33.50;31.20
63283;DHT22;49407;51.388;0.048;2022-07-29T16:30:07;33.20;31.40
63283;DHT22;49407;51.388;0.048;2022-07-29T16:32:35;33.00;31.50
63283;DHT22;49407;51.388;0.048;2022-07-29T16:35:03;32.90;31.70
63283;DHT22;49407;51.388;0.048;2022-07-29T16:37:31;32.80;31.90
63283;DHT22;49407;51.388;0.048;2022-07-29T16:40:04;32.80;32.00
63283;DHT22;49407;51.388;0.048;2022-07-29T16:42:33;32.70;32.20
63283;DHT22;49407;51.388;0.048;2022-07-29T16:45:13;32.80;32.30
63283;DHT22;49407;51.388;0.048;2022-07-29T16:47:40;32.90;32.30
63283;DHT22;49407;51.388;0.048;2022-07-29T16:50:12;32.90;32.40
63283;DHT22;49407;51.388;0.048;2022-07-29T16:52:39;33.00;32.50
63283;DHT22;49407;51.388;0.048;2022-07-29T16:55:07;33.00;32.50
63283;DHT22;49407;51.388;0.048;2022-07-29T16:57:34;32.90;32.60
63283;DHT22;49407;51.388;0.048;2022-07-29T17:00:02;32.90;32.60
63283;DHT22;49407;51.388;0.048;2022-07-29T17:02:29;32.80;32.60
63283;DHT22;49407;51.388;0.048;2022-07-29T17:04:56;32.70;32.60
63283;DHT22;49407;51.388;0.048;2022-07-29T17:07:24;32.70;32.70
63283;DHT22;49407;51.388;0.048;2022-07-29T17:09:54;32.60;32.70
63283;DHT22;49407;51.388;0.048;2022-07-29T17:12:29;32.50;32.80
63283;DHT22;49407;51.388;0.048;2022-07-29T17:14:57;32.30;32.90